sensor_id;sensor_type;location;lat;lon;timestamp;temperature;humidity
53368;DHT22;39271;45.618;20.024;2022-08-19T00:00:12;666.00;1766.40
53368;DHT22;39271;45.618;20.024;2022-08-19T00:02:40;665.90;1740.80
53368;DHT22;39271;45.618;20.024;2022-08-19T00:05:07;665.90;1766.40
53368;DHT22;39271;45.618;20.024;2022-08-19T00:07:33;665.90;1766.40
53368;DHT22;39271;45.618;20.024;2022-08-19T00:09:58;665.90;1792.00
53368;DHT22;39271;45.618;20.024;2022-08-19T00:12:24;666.00;1766.40
53368;DHT22;39271;45.618;20.024;2022-08-19T00:14:49;665.70;1792.00
53368;DHT22;39271;45.618;20.024;2022-08-19T00:17:15;665.60;1792.00
53368;DHT22;39271;45.618;20.024;2022-08-19T00:19:41;665.60;1817.60
53368;DHT22;39271;45.618;20.024;2022-08-19T00:22:06;665.60;1817.60
53368;DHT22;39271;45.618;20.024;2022-08-19T00:24:34;665.70;1817.60
53368;DHT22;39271;45.618;20.024;2022-08-19T00:26:59;665.70;1817.60
53368;DHT22;39271;45.618;20.024;2022-08-19T00:29:26;665.60;1843.20
53368;DHT22;39271;45.618;20.024;2022-08-19T00:31:52;665.60;1843.20
53368;DHT22;39271;45.618;20.024;2022-08-19T00:34:23;640.90;1817.60
53368;DHT22;39271;45.618;20.024;2022-08-19T00:36:48;640.90;1817.60
53368;DHT22;39271;45.618;20.024;2022-08-19T00:39:14;640.80;1843.20
53368;DHT22;39271;45.618;20.024;2022-08-19T01:27:55;640.60;1817.60
53368;DHT22;39271;45.618;20.024;2022-08-19T01:30:31;640.40;1843.20
53368;DHT22;39271;45.618;20.024;2022-08-19T01:32:57;640.50;1843.20
53368;DHT22;39271;45.618;20.024;2022-08-19T01:35:24;640.40;1843.20
53368;DHT22;39271;45.618;20.024;2022-08-19T01:37:51;640.30;1868.80
53368;DHT22;39271;45.618;20.024;2022-08-19T01:40:19;640.30;1868.80
53368;DHT22;39271;45.618;20.024;2022-08-19T01:42:46;640.20;1843.20
53368;DHT22;39271;45.618;20.024;2022-08-19T01:45:13;640.10;1868.80
53368;DHT22;39271;45.618;20.024;2022-08-19T01:47:39;640.20;1868.80
53368;DHT22;39271;45.618;20.024;2022-08-19T01:50:07;640.10;1868.80
53368;DHT22;39271;45.618;20.024;2022-08-19T01:52:34;640.00;1894.40
53368;DHT22;39271;45.618;20.024;2022-08-19T01:55:00;640.20;1868.80
53368;DHT22;39271;45.618;20.024;2022-08-19T01:57:26;640.10;1894.40
53368;DHT22;39271;45.618;20.024;2022-08-19T01:59:51;640.10;1894.40
53368;DHT22;39271;45.618;20.024;2022-08-19T02:02:17;640.10;1894.40
53368;DHT22;39271;45.618;20.024;2022-08-19T02:04:43;615.30;1868.80
53368;DHT22;39271;45.618;20.024;2022-08-19T02:07:08;640.20;1894.40
53368;DHT22;39271;45.618;20.024;2022-08-19T02:09:34;640.00;1894.40
53368;DHT22;39271;45.618;20.024;2022-08-19T02:12:00;615.30;1868.80
53368;DHT22;39271;45.618;20.024;2022-08-19T02:14:25;640.00;1868.80
53368;DHT22;39271;45.618;20.024;2022-08-19T02:16:51;615.30;1868.80
53368;DHT22;39271;45.618;20.024;2022-08-19T02:19:17;615.30;1868.80
53368;DHT22;39271;45.618;20.024;2022-08-19T02:21:42;615.30;1894.40
53368;DHT22;39271;45.618;20.024;2022-08-19T02:24:09;615.30;1894.40
53368;DHT22;39271;45.618;20.024;2022-08-19T02:26:34;640.10;1894.40
53368;DHT22;39271;45.618;20.024;2022-08-19T02:29:00;615.30;1894.40
53368;DHT22;39271;45.618;20.024;2022-08-19T02:31:26;615.30;1868.80
53368;DHT22;39271;45.618;20.024;2022-08-19T02:33:53;615.30;1868.80
53368;DHT22;39271;45.618;20.024;2022-08-19T02:36:20;615.30;1894.40
53368;DHT22;39271;45.618;20.024;2022-08-19T02:38:47;615.30;1894.40
53368;DHT22;39271;45.618;20.024;2022-08-19T02:41:23;615.20;1894.40
53368;DHT22;39271;45.618;20.024;2022-08-19T02:43:49;615.30;1894.40
53368;DHT22;39271;45.618;20.024;2022-08-19T02:46:16;615.20;1894.40
53368;DHT22;39271;45.618;20.024;2022-08-19T02:48:47;615.20;1868.80
53368;DHT22;39271;45.618;20.024;2022-08-19T02:51:16;615.20;1868.80
53368;DHT22;39271;45.618;20.024;2022-08-19T02:53:42;615.30;1868.80
53368;DHT22;39271;45.618;20.024;2022-08-19T02:56:08;615.10;1868.80
53368;DHT22;39271;45.618;20.024;2022-08-19T02:58:34;615.10;1894.40
53368;DHT22;39271;45.618;20.024;2022-08-19T03:00:59;615.10;1894.40
53368;DHT22;39271;45.618;20.024;2022-08-19T03:03:25;615.30;1868.80
53368;DHT22;39271;45.618;20.024;2022-08-19T03:05:51;615.10;1894.40
53368;DHT22;39271;45.618;20.024;2022-08-19T03:08:17;615.10;1920.00
53368;DHT22;39271;45.618;20.024;2022-08-19T03:10:44;615.00;1894.40
53368;DHT22;39271;45.618;20.024;2022-08-19T03:13:12;615.10;1920.00
53368;DHT22;39271;45.618;20.024;2022-08-19T03:15:39;615.20;1920.00
53368;DHT22;39271;45.618;20.024;2022-08-19T03:18:05;615.00;1920.00
53368;DHT22;39271;45.618;20.024;2022-08-19T03:20:31;615.10;1945.60
53368;DHT22;39271;45.618;20.024;2022-08-19T03:22:56;615.10;1920.00
53368;DHT22;39271;45.618;20.024;2022-08-19T03:25:22;614.90;1945.60
53368;DHT22;39271;45.618;20.024;2022-08-19T03:27:48;615.10;1920.00
53368;DHT22;39271;45.618;20.024;2022-08-19T03:35:06;615.00;1894.40
53368;DHT22;39271;45.618;20.024;2022-08-19T04:04:20;615.00;1894.40
53368;DHT22;39271;45.618;20.024;2022-08-19T04:06:46;614.80;1920.00
53368;DHT22;39271;45.618;20.024;2022-08-19T04:09:12;614.90;1920.00
53368;DHT22;39271;45.618;20.024;2022-08-19T04:11:43;614.90;1920.00
53368;DHT22;39271;45.618;20.024;2022-08-19T04:14:13;614.80;1945.60
53368;DHT22;39271;45.618;20.024;2022-08-19T04:16:39;614.90;1920.00
53368;DHT22;39271;45.618;20.024;2022-08-19T04:19:05;614.80;1945.60
53368;DHT22;39271;45.618;20.024;2022-08-19T04:21:31;614.90;1945.60
53368;DHT22;39271;45.618;20.024;2022-08-19T04:23:57;615.00;1920.00
53368;DHT22;39271;45.618;20.024;2022-08-19T04:26:25;615.10;1920.00
53368;DHT22;39271;45.618;20.024;2022-08-19T04:28:51;615.20;1894.40
53368;DHT22;39271;45.618;20.024;2022-08-19T04:31:21;615.20;1868.80
53368;DHT22;39271;45.618;20.024;2022-08-19T04:33:47;640.10;1868.80
53368;DHT22;39271;45.618;20.024;2022-08-19T04:36:18;640.00;1894.40
53368;DHT22;39271;45.618;20.024;2022-08-19T04:38:46;640.00;1894.40
53368;DHT22;39271;45.618;20.024;2022-08-19T04:41:14;640.00;1894.40
53368;DHT22;39271;45.618;20.024;2022-08-19T04:44:02;640.10;1894.40
53368;DHT22;39271;45.618;20.024;2022-08-19T04:46:29;640.20;1894.40
53368;DHT22;39271;45.618;20.024;2022-08-19T04:49:02;640.20;1868.80
53368;DHT22;39271;45.618;20.024;2022-08-19T04:51:28;640.30;1843.20
53368;DHT22;39271;45.618;20.024;2022-08-19T04:53:56;640.30;1843.20
53368;DHT22;39271;45.618;20.024;2022-08-19T04:56:22;640.40;1843.20
53368;DHT22;39271;45.618;20.024;2022-08-19T04:58:51;640.40;1843.20
53368;DHT22;39271;45.618;20.024;2022-08-19T05:01:18;640.20;1843.20
53368;DHT22;39271;45.618;20.024;2022-08-19T05:03:44;640.60;1843.20
53368;DHT22;39271;45.618;20.024;2022-08-19T05:06:12;640.60;1817.60
53368;DHT22;39271;45.618;20.024;2022-08-19T05:08:38;640.60;1843.20
53368;DHT22;39271;45.618;20.024;2022-08-19T05:11:12;640.60;1817.60
53368;DHT22;39271;45.618;20.024;2022-08-19T05:13:38;640.70;1817.60
53368;DHT22;39271;45.618;20.024;2022-08-19T05:16:04;640.80;1817.60
53368;DHT22;39271;45.618;20.024;2022-08-19T05:18:30;640.80;1817.60
53368;DHT22;39271;45.618;20.024;2022-08-19T05:21:16;640.90;1843.20
53368;DHT22;39271;45.618;20.024;2022-08-19T05:24:00;640.90;1817.60
53368;DHT22;39271;45.618;20.024;2022-08-19T05:26:27;665.70;1843.20
53368;DHT22;39271;45.618;20.024;2022-08-19T05:28:53;665.70;1868.80
53368;DHT22;39271;45.618;20.024;2022-08-19T05:31:19;665.80;1868.80
53368;DHT22;39271;45.618;20.024;2022-08-19T05:33:44;665.80;1843.20
53368;DHT22;39271;45.618;20.024;2022-08-19T05:36:10;665.90;1843.20
53368;DHT22;39271;45.618;20.024;2022-08-19T05:38:36;665.90;1843.20
53368;DHT22;39271;45.618;20.024;2022-08-19T05:41:08;666.00;1817.60
53368;DHT22;39271;45.618;20.024;2022-08-19T05:43:34;666.00;1843.20
53368;DHT22;39271;45.618;20.024;2022-08-19T05:46:00;666.10;1817.60
53368;DHT22;39271;45.618;20.024;2022-08-19T05:48:25;666.20;1792.00
53368;DHT22;39271;45.618;20.024;2022-08-19T05:50:51;666.30;1792.00
53368;DHT22;39271;45.618;20.024;2022-08-19T05:53:17;666.30;1817.60
53368;DHT22;39271;45.618;20.024;2022-08-19T05:55:43;666.40;1817.60
53368;DHT22;39271;45.618;20.024;2022-08-19T05:58:09;666.50;1817.60
53368;DHT22;39271;45.618;20.024;2022-08-19T06:00:35;666.50;1792.00
53368;DHT22;39271;45.618;20.024;2022-08-19T06:03:01;691.20;1766.40
53368;DHT22;39271;45.618;20.024;2022-08-19T06:05:29;691.30;1766.40
53368;DHT22;39271;45.618;20.024;2022-08-19T06:07:54;691.30;1766.40
53368;DHT22;39271;45.618;20.024;2022-08-19T06:10:20;691.50;1740.80
53368;DHT22;39271;45.618;20.024;2022-08-19T06:12:47;691.60;1740.80
53368;DHT22;39271;45.618;20.024;2022-08-19T06:15:13;691.60;1715.20
53368;DHT22;39271;45.618;20.024;2022-08-19T06:17:39;691.80;1996.80
53368;DHT22;39271;45.618;20.024;2022-08-19T06:20:05;691.80;1715.20
53368;DHT22;39271;45.618;20.024;2022-08-19T06:22:35;691.80;1715.20
53368;DHT22;39271;45.618;20.024;2022-08-19T06:25:02;692.00;1740.80
53368;DHT22;39271;45.618;20.024;2022-08-19T06:27:29;691.70;1740.80
53368;DHT22;39271;45.618;20.024;2022-08-19T06:29:56;692.00;1715.20
53368;DHT22;39271;45.618;20.024;2022-08-19T06:32:21;716.80;1740.80
53368;DHT22;39271;45.618;20.024;2022-08-19T06:34:47;716.80;1715.20
53368;DHT22;39271;45.618;20.024;2022-08-19T06:37:13;716.90;1689.60
53368;DHT22;39271;45.618;20.024;2022-08-19T06:39:39;716.90;1740.80
53368;DHT22;39271;45.618;20.024;2022-08-19T06:42:05;717.00;1715.20
53368;DHT22;39271;45.618;20.024;2022-08-19T06:44:34;717.10;1715.20
53368;DHT22;39271;45.618;20.024;2022-08-19T06:47:06;717.20;1638.40
53368;DHT22;39271;45.618;20.024;2022-08-19T06:49:32;717.40;1689.60
53368;DHT22;39271;45.618;20.024;2022-08-19T06:51:58;717.20;1664.00
53368;DHT22;39271;45.618;20.024;2022-08-19T06:54:24;717.50;1689.60
53368;DHT22;39271;45.618;20.024;2022-08-19T06:56:50;717.60;1689.60
53368;DHT22;39271;45.618;20.024;2022-08-19T06:59:18;717.70;1638.40
53368;DHT22;39271;45.618;20.024;2022-08-19T07:01:45;717.70;1638.40
53368;DHT22;39271;45.618;20.024;2022-08-19T07:04:13;742.50;1689.60
53368;DHT22;39271;45.618;20.024;2022-08-19T07:06:49;742.50;1664.00
53368;DHT22;39271;45.618;20.024;2022-08-19T07:09:15;742.60;1638.40
53368;DHT22;39271;45.618;20.024;2022-08-19T07:11:45;742.60;1638.40
53368;DHT22;39271;45.618;20.024;2022-08-19T07:14:11;742.70;1612.80
53368;DHT22;39271;45.618;20.024;2022-08-19T07:16:37;742.80;1638.40
53368;DHT22;39271;45.618;20.024;2022-08-19T07:19:03;742.80;1612.80
53368;DHT22;39271;45.618;20.024;2022-08-19T07:21:28;742.90;1612.80
53368;DHT22;39271;45.618;20.024;2022-08-19T07:23:55;743.00;1638.40
53368;DHT22;39271;45.618;20.024;2022-08-19T07:28:47;743.20;1638.40
53368;DHT22;39271;45.618;20.024;2022-08-19T07:31:13;743.20;1587.20
53368;DHT22;39271;45.618;20.024;2022-08-19T07:33:40;743.30;1612.80
53368;DHT22;39271;45.618;20.024;2022-08-19T07:36:07;768.10;1561.60
53368;DHT22;39271;45.618;20.024;2022-08-19T07:38:33;768.10;1561.60
53368;DHT22;39271;45.618;20.024;2022-08-19T07:40:59;768.20;1587.20
53368;DHT22;39271;45.618;20.024;2022-08-19T07:43:25;768.30;1536.00
53368;DHT22;39271;45.618;20.024;2022-08-19T07:45:52;768.40;1536.00
53368;DHT22;39271;45.618;20.024;2022-08-19T07:48:21;768.60;1536.00
53368;DHT22;39271;45.618;20.024;2022-08-19T07:50:50;768.60;1510.40
53368;DHT22;39271;45.618;20.024;2022-08-19T07:53:16;768.60;1484.80
53368;DHT22;39271;45.618;20.024;2022-08-19T07:55:41;768.80;1536.00
53368;DHT22;39271;45.618;20.024;2022-08-19T07:58:07;793.90;1536.00
53368;DHT22;39271;45.618;20.024;2022-08-19T08:00:33;793.70;1561.60
53368;DHT22;39271;45.618;20.024;2022-08-19T08:02:59;793.80;1536.00
53368;DHT22;39271;45.618;20.024;2022-08-19T08:10:54;794.30;1510.40
53368;DHT22;39271;45.618;20.024;2022-08-19T08:13:20;794.20;1510.40
53368;DHT22;39271;45.618;20.024;2022-08-19T08:15:45;794.30;1459.20
53368;DHT22;39271;45.618;20.024;2022-08-19T08:18:11;794.30;1484.80
53368;DHT22;39271;45.618;20.024;2022-08-19T08:20:37;794.40;1459.20
53368;DHT22;39271;45.618;20.024;2022-08-19T08:23:05;819.20;1459.20
53368;DHT22;39271;45.618;20.024;2022-08-19T08:25:50;819.30;1433.60
53368;DHT22;39271;45.618;20.024;2022-08-19T08:28:17;819.40;1459.20
53368;DHT22;39271;45.618;20.024;2022-08-19T08:30:42;819.40;1459.20
53368;DHT22;39271;45.618;20.024;2022-08-19T08:42:57;820.00;1356.80
53368;DHT22;39271;45.618;20.024;2022-08-19T08:45:25;819.90;1382.40
53368;DHT22;39271;45.618;20.024;2022-08-19T08:47:52;820.10;1382.40
53368;DHT22;39271;45.618;20.024;2022-08-19T08:50:39;820.00;1356.80
53368;DHT22;39271;45.618;20.024;2022-08-19T08:53:07;844.80;1331.20
53368;DHT22;39271;45.618;20.024;2022-08-19T08:55:34;844.90;1356.80
53368;DHT22;39271;45.618;20.024;2022-08-19T08:58:07;819.90;1305.60
53368;DHT22;39271;45.618;20.024;2022-08-19T09:00:37;845.00;1382.40
53368;DHT22;39271;45.618;20.024;2022-08-19T09:03:03;845.00;1356.80
53368;DHT22;39271;45.618;20.024;2022-08-19T09:05:37;845.10;1356.80
53368;DHT22;39271;45.618;20.024;2022-08-19T09:10:59;845.40;1305.60
53368;DHT22;39271;45.618;20.024;2022-08-19T09:16:09;845.40;1356.80
53368;DHT22;39271;45.618;20.024;2022-08-19T09:18:39;845.50;1331.20
53368;DHT22;39271;45.618;20.024;2022-08-19T09:21:05;845.60;1305.60
53368;DHT22;39271;45.618;20.024;2022-08-19T09:23:32;845.60;1280.00
53368;DHT22;39271;45.618;20.024;2022-08-19T09:25:58;845.60;1305.60
53368;DHT22;39271;45.618;20.024;2022-08-19T09:47:53;870.50;1305.60
53368;DHT22;39271;45.618;20.024;2022-08-19T09:50:19;870.50;1177.60
53368;DHT22;39271;45.618;20.024;2022-08-19T09:52:45;870.70;1228.80
53368;DHT22;39271;45.618;20.024;2022-08-19T09:55:11;870.60;1203.20
53368;DHT22;39271;45.618;20.024;2022-08-19T09:57:37;871.00;1203.20
53368;DHT22;39271;45.618;20.024;2022-08-19T10:00:05;871.00;1177.60
53368;DHT22;39271;45.618;20.024;2022-08-19T10:02:32;871.10;1177.60
53368;DHT22;39271;45.618;20.024;2022-08-19T10:04:57;871.00;1152.00
53368;DHT22;39271;45.618;20.024;2022-08-19T10:07:42;871.20;1203.20
53368;DHT22;39271;45.618;20.024;2022-08-19T10:10:07;896.00;1152.00
53368;DHT22;39271;45.618;20.024;2022-08-19T10:12:34;871.30;1152.00
53368;DHT22;39271;45.618;20.024;2022-08-19T10:15:00;896.00;1126.40
53368;DHT22;39271;45.618;20.024;2022-08-19T10:17:27;896.20;1100.80
53368;DHT22;39271;45.618;20.024;2022-08-19T10:19:52;896.10;1177.60
53368;DHT22;39271;45.618;20.024;2022-08-19T10:22:18;896.30;1126.40
53368;DHT22;39271;45.618;20.024;2022-08-19T10:24:45;896.20;1126.40
53368;DHT22;39271;45.618;20.024;2022-08-19T10:27:11;896.30;1177.60
53368;DHT22;39271;45.618;20.024;2022-08-19T10:29:38;896.50;1126.40
53368;DHT22;39271;45.618;20.024;2022-08-19T10:32:04;896.50;1100.80
53368;DHT22;39271;45.618;20.024;2022-08-19T10:34:34;896.60;1100.80
53368;DHT22;39271;45.618;20.024;2022-08-19T10:37:01;896.60;1126.40
53368;DHT22;39271;45.618;20.024;2022-08-19T10:39:27;896.60;1126.40
53368;DHT22;39271;45.618;20.024;2022-08-19T10:41:56;896.80;1075.20
53368;DHT22;39271;45.618;20.024;2022-08-19T10:44:22;896.60;1152.00
53368;DHT22;39271;45.618;20.024;2022-08-19T10:46:49;896.60;1152.00
53368;DHT22;39271;45.618;20.024;2022-08-19T10:49:14;896.60;1152.00
53368;DHT22;39271;45.618;20.024;2022-08-19T10:51:40;896.30;1152.00
53368;DHT22;39271;45.618;20.024;2022-08-19T10:54:24;896.40;1126.40
53368;DHT22;39271;45.618;20.024;2022-08-19T10:57:10;896.60;1126.40
53368;DHT22;39271;45.618;20.024;2022-08-19T10:59:36;896.60;1152.00
53368;DHT22;39271;45.618;20.024;2022-08-19T11:02:04;896.60;1126.40
53368;DHT22;39271;45.618;20.024;2022-08-19T11:04:31;896.70;1126.40
53368;DHT22;39271;45.618;20.024;2022-08-19T11:06:57;921.60;1049.60
53368;DHT22;39271;45.618;20.024;2022-08-19T11:09:24;921.70;1126.40
53368;DHT22;39271;45.618;20.024;2022-08-19T11:11:50;921.70;1126.40
53368;DHT22;39271;45.618;20.024;2022-08-19T11:14:18;921.80;1075.20
53368;DHT22;39271;45.618;20.024;2022-08-19T11:16:45;921.70;1126.40
53368;DHT22;39271;45.618;20.024;2022-08-19T11:19:11;921.80;1100.80
53368;DHT22;39271;45.618;20.024;2022-08-19T11:21:38;921.70;1075.20
53368;DHT22;39271;45.618;20.024;2022-08-19T11:24:08;921.80;1126.40
53368;DHT22;39271;45.618;20.024;2022-08-19T11:26:35;922.10;1100.80
53368;DHT22;39271;45.618;20.024;2022-08-19T11:29:01;922.10;1126.40
53368;DHT22;39271;45.618;20.024;2022-08-19T11:31:28;922.00;1024.00
53368;DHT22;39271;45.618;20.024;2022-08-19T11:33:56;922.10;1075.20
53368;DHT22;39271;45.618;20.024;2022-08-19T11:36:22;922.00;1075.20
53368;DHT22;39271;45.618;20.024;2022-08-19T11:38:48;921.80;1152.00
53368;DHT22;39271;45.618;20.024;2022-08-19T11:41:14;921.80;1100.80
53368;DHT22;39271;45.618;20.024;2022-08-19T11:43:40;921.80;1100.80
53368;DHT22;39271;45.618;20.024;2022-08-19T11:46:10;921.90;1126.40
53368;DHT22;39271;45.618;20.024;2022-08-19T11:48:37;921.80;1075.20
53368;DHT22;39271;45.618;20.024;2022-08-19T11:51:06;922.00;1126.40
53368;DHT22;39271;45.618;20.024;2022-08-19T11:53:32;921.80;1126.40
53368;DHT22;39271;45.618;20.024;2022-08-19T11:55:58;921.80;1075.20
53368;DHT22;39271;45.618;20.024;2022-08-19T11:58:24;921.90;1049.60
53368;DHT22;39271;45.618;20.024;2022-08-19T12:00:50;922.10;1100.80
53368;DHT22;39271;45.618;20.024;2022-08-19T12:03:16;922.20;1024.00
53368;DHT22;39271;45.618;20.024;2022-08-19T12:05:42;922.20;1049.60
53368;DHT22;39271;45.618;20.024;2022-08-19T12:08:09;922.20;1075.20
53368;DHT22;39271;45.618;20.024;2022-08-19T12:10:38;922.50;1024.00
53368;DHT22;39271;45.618;20.024;2022-08-19T12:13:07;922.50;1049.60
53368;DHT22;39271;45.618;20.024;2022-08-19T12:15:37;947.40;1075.20
53368;DHT22;39271;45.618;20.024;2022-08-19T12:18:05;922.50;1049.60
53368;DHT22;39271;45.618;20.024;2022-08-19T12:20:34;947.20;998.40
53368;DHT22;39271;45.618;20.024;2022-08-19T12:23:01;947.30;998.40
53368;DHT22;39271;45.618;20.024;2022-08-19T12:25:29;947.40;1075.20
53368;DHT22;39271;45.618;20.024;2022-08-19T12:27:56;947.40;998.40
53368;DHT22;39271;45.618;20.024;2022-08-19T12:30:21;947.30;972.80
53368;DHT22;39271;45.618;20.024;2022-08-19T12:32:47;947.40;1024.00
53368;DHT22;39271;45.618;20.024;2022-08-19T12:35:14;947.40;1024.00
53368;DHT22;39271;45.618;20.024;2022-08-19T12:37:42;947.40;1024.00
53368;DHT22;39271;45.618;20.024;2022-08-19T12:40:10;947.40;1024.00
53368;DHT22;39271;45.618;20.024;2022-08-19T12:42:37;947.30;1049.60
53368;DHT22;39271;45.618;20.024;2022-08-19T12:45:06;947.40;972.80
53368;DHT22;39271;45.618;20.024;2022-08-19T12:47:32;947.90;972.80
53368;DHT22;39271;45.618;20.024;2022-08-19T12:49:58;947.70;972.80
53368;DHT22;39271;45.618;20.024;2022-08-19T12:52:24;947.70;947.20
53368;DHT22;39271;45.618;20.024;2022-08-19T12:54:51;947.80;972.80
53368;DHT22;39271;45.618;20.024;2022-08-19T12:57:17;947.70;1024.00
53368;DHT22;39271;45.618;20.024;2022-08-19T12:59:43;947.80;972.80
53368;DHT22;39271;45.618;20.024;2022-08-19T13:02:11;947.80;921.60
53368;DHT22;39271;45.618;20.024;2022-08-19T13:04:40;947.90;972.80
53368;DHT22;39271;45.618;20.024;2022-08-19T13:07:06;947.80;972.80
53368;DHT22;39271;45.618;20.024;2022-08-19T13:09:31;947.80;947.20
53368;DHT22;39271;45.618;20.024;2022-08-19T13:11:57;947.80;972.80
53368;DHT22;39271;45.618;20.024;2022-08-19T13:14:22;947.80;947.20
53368;DHT22;39271;45.618;20.024;2022-08-19T13:16:48;947.90;921.60
53368;DHT22;39271;45.618;20.024;2022-08-19T13:19:14;948.10;896.00
53368;DHT22;39271;45.618;20.024;2022-08-19T13:21:39;972.80;921.60
53368;DHT22;39271;45.618;20.024;2022-08-19T13:24:05;972.90;921.60
53368;DHT22;39271;45.618;20.024;2022-08-19T13:26:31;972.90;921.60
53368;DHT22;39271;45.618;20.024;2022-08-19T13:28:57;972.90;972.80
53368;DHT22;39271;45.618;20.024;2022-08-19T13:31:43;972.80;972.80
53368;DHT22;39271;45.618;20.024;2022-08-19T13:34:32;948.10;972.80
53368;DHT22;39271;45.618;20.024;2022-08-19T13:40:09;972.80;921.60
53368;DHT22;39271;45.618;20.024;2022-08-19T13:42:41;972.90;947.20
53368;DHT22;39271;45.618;20.024;2022-08-19T13:45:07;948.10;947.20
53368;DHT22;39271;45.618;20.024;2022-08-19T13:47:34;972.80;947.20
53368;DHT22;39271;45.618;20.024;2022-08-19T13:50:03;948.10;947.20
53368;DHT22;39271;45.618;20.024;2022-08-19T13:52:30;947.90;972.80
53368;DHT22;39271;45.618;20.024;2022-08-19T13:54:56;947.90;921.60
53368;DHT22;39271;45.618;20.024;2022-08-19T13:57:21;948.10;972.80
53368;DHT22;39271;45.618;20.024;2022-08-19T13:59:47;947.90;921.60
53368;DHT22;39271;45.618;20.024;2022-08-19T14:02:13;948.10;921.60
53368;DHT22;39271;45.618;20.024;2022-08-19T14:04:38;947.80;972.80
53368;DHT22;39271;45.618;20.024;2022-08-19T14:07:04;947.80;947.20
53368;DHT22;39271;45.618;20.024;2022-08-19T14:09:30;948.00;947.20
53368;DHT22;39271;45.618;20.024;2022-08-19T14:11:56;948.10;921.60
53368;DHT22;39271;45.618;20.024;2022-08-19T14:14:22;947.80;896.00
53368;DHT22;39271;45.618;20.024;2022-08-19T14:16:48;972.80;921.60
53368;DHT22;39271;45.618;20.024;2022-08-19T14:19:20;948.10;896.00
53368;DHT22;39271;45.618;20.024;2022-08-19T14:21:55;948.10;896.00
53368;DHT22;39271;45.618;20.024;2022-08-19T14:24:22;948.10;896.00
53368;DHT22;39271;45.618;20.024;2022-08-19T14:26:48;948.10;921.60
53368;DHT22;39271;45.618;20.024;2022-08-19T14:29:14;972.90;896.00
53368;DHT22;39271;45.618;20.024;2022-08-19T14:31:40;972.90;921.60
53368;DHT22;39271;45.618;20.024;2022-08-19T14:34:07;972.90;947.20
53368;DHT22;39271;45.618;20.024;2022-08-19T14:39:38;972.90;947.20
53368;DHT22;39271;45.618;20.024;2022-08-19T14:42:09;948.00;921.60
53368;DHT22;39271;45.618;20.024;2022-08-19T14:44:38;948.00;921.60
53368;DHT22;39271;45.618;20.024;2022-08-19T14:47:09;947.90;972.80
53368;DHT22;39271;45.618;20.024;2022-08-19T14:49:36;948.00;947.20
53368;DHT22;39271;45.618;20.024;2022-08-19T14:52:03;947.90;921.60
53368;DHT22;39271;45.618;20.024;2022-08-19T14:54:33;948.00;947.20
53368;DHT22;39271;45.618;20.024;2022-08-19T14:57:00;947.80;972.80
53368;DHT22;39271;45.618;20.024;2022-08-19T14:59:47;947.80;972.80
53368;DHT22;39271;45.618;20.024;2022-08-19T15:02:12;947.80;921.60
53368;DHT22;39271;45.618;20.024;2022-08-19T15:04:38;947.70;972.80
53368;DHT22;39271;45.618;20.024;2022-08-19T15:07:04;947.80;972.80
53368;DHT22;39271;45.618;20.024;2022-08-19T15:09:31;947.30;998.40
53368;DHT22;39271;45.618;20.024;2022-08-19T15:12:00;922.20;998.40
53368;DHT22;39271;45.618;20.024;2022-08-19T15:14:27;921.80;1049.60
53368;DHT22;39271;45.618;20.024;2022-08-19T15:16:53;896.40;1024.00
53368;DHT22;39271;45.618;20.024;2022-08-19T15:19:19;896.60;1049.60
53368;DHT22;39271;45.618;20.024;2022-08-19T15:21:45;896.20;1075.20
53368;DHT22;39271;45.618;20.024;2022-08-19T15:24:11;871.20;1075.20
53368;DHT22;39271;45.618;20.024;2022-08-19T15:29:39;870.80;1100.80
53368;DHT22;39271;45.618;20.024;2022-08-19T15:32:06;870.60;1100.80
53368;DHT22;39271;45.618;20.024;2022-08-19T15:34:33;870.60;1126.40
53368;DHT22;39271;45.618;20.024;2022-08-19T15:36:59;870.50;1126.40
53368;DHT22;39271;45.618;20.024;2022-08-19T15:39:25;870.50;1100.80
53368;DHT22;39271;45.618;20.024;2022-08-19T15:41:59;870.50;1075.20
53368;DHT22;39271;45.618;20.024;2022-08-19T15:44:31;870.80;1049.60
53368;DHT22;39271;45.618;20.024;2022-08-19T15:46:56;870.90;1049.60
53368;DHT22;39271;45.618;20.024;2022-08-19T15:49:35;870.90;1049.60
53368;DHT22;39271;45.618;20.024;2022-08-19T15:52:19;870.90;1024.00
53368;DHT22;39271;45.618;20.024;2022-08-19T16:00:59;870.80;1024.00
53368;DHT22;39271;45.618;20.024;2022-08-19T16:06:54;870.40;1049.60
53368;DHT22;39271;45.618;20.024;2022-08-19T16:09:22;845.70;1075.20
53368;DHT22;39271;45.618;20.024;2022-08-19T16:11:48;845.50;1075.20
53368;DHT22;39271;45.618;20.024;2022-08-19T16:14:35;845.40;1100.80
53368;DHT22;39271;45.618;20.024;2022-08-19T16:19:49;845.10;1100.80
53368;DHT22;39271;45.618;20.024;2022-08-19T16:25:24;845.10;1152.00
53368;DHT22;39271;45.618;20.024;2022-08-19T16:27:56;845.00;1100.80
53368;DHT22;39271;45.618;20.024;2022-08-19T16:33:27;845.00;1126.40
53368;DHT22;39271;45.618;20.024;2022-08-19T16:35:56;844.90;1126.40
53368;DHT22;39271;45.618;20.024;2022-08-19T16:38:23;844.90;1126.40
53368;DHT22;39271;45.618;20.024;2022-08-19T16:40:55;845.00;1126.40
53368;DHT22;39271;45.618;20.024;2022-08-19T16:49:35;820.00;1126.40
53368;DHT22;39271;45.618;20.024;2022-08-19T16:55:41;820.00;1100.80
53368;DHT22;39271;45.618;20.024;2022-08-19T16:58:22;820.00;1126.40
53368;DHT22;39271;45.618;20.024;2022-08-19T17:00:53;819.90;1100.80
53368;DHT22;39271;45.618;20.024;2022-08-19T17:03:42;820.00;1100.80
53368;DHT22;39271;45.618;20.024;2022-08-19T17:12:25;819.90;1100.80
53368;DHT22;39271;45.618;20.024;2022-08-19T17:15:03;819.90;1126.40
53368;DHT22;39271;45.618;20.024;2022-08-19T17:17:40;819.90;1126.40
53368;DHT22;39271;45.618;20.024;2022-08-19T17:20:09;819.80;1100.80
53368;DHT22;39271;45.618;20.024;2022-08-19T17:22:38;819.80;1100.80
53368;DHT22;39271;45.618;20.024;2022-08-19T17:25:07;819.80;1126.40